Time;durP1;ratioP1;P1;durP2;ratioP2;P2;SDS_P1;SDS_P2;PMS_P1;PMS_P2;Temp;Humidity;BMP_temperature;BMP_pressure;BME280_temperature;BME280_humidity;BME280_pressure;Samples;Min_cycle;Max_cycle;Signal;HPM_P1;HPM_P2
2022/12/11 00:00:22;;;;;;;;;;;;;;;2.60;100.00;98351.45;106906;1301;22409;-55
2022/12/11 00:02:49;;;;;;;28.40;16.30;;;;;;;2.57;100.00;98350.97;106808;1302;22173;-54
2022/12/11 00:05:16;;;;;;;;;;;;;;;2.56;100.00;98355.52;106573;1286;22591;-55
2022/12/11 00:07:42;;;;;;;33.50;19.60;;;;;;;2.54;100.00;98360.62;102565;1294;22824;-54
2022/12/11 00:10:09;;;;;;;;;;;;;;;2.50;100.00;98356.83;102586;1280;23974;-53
2022/12/11 00:12:36;;;;;;;38.50;22.90;;;;;;;2.47;100.00;98354.06;102519;1308;23527;-53
2022/12/11 00:15:03;;;;;;;29.30;18.80;;;;;;;2.45;100.00;98353.74;102482;1294;22500;-53
2022/12/11 00:17:30;;;;;;;33.40;19.10;;;;;;;2.44;100.00;98356.38;106802;1294;22829;-54
2022/12/11 00:19:56;;;;;;;29.10;18.00;;;;;;;2.42;100.00;98350.41;106825;1287;22385;-54
2022/12/11 00:22:23;;;;;;;26.50;17.30;;;;;;;2.40;100.00;98340.42;106795;1296;22217;-55
2022/12/11 00:24:50;;;;;;;28.40;16.40;;;;;;;2.40;100.00;98344.02;106776;1302;22352;-54
2022/12/11 00:27:17;;;;;;;;;;;;;;;2.40;100.00;98340.20;106839;1301;22430;-54
2022/12/11 00:29:43;;;;;;;22.80;15.00;;;;;;;2.38;100.00;98341.22;106798;1285;23079;-54
2022/12/11 00:32:10;;;;;;;23.50;15.00;;;;;;;2.35;100.00;98340.23;106727;1273;22136;-54
2022/12/11 00:34:37;;;;;;;22.20;14.40;;;;;;;2.34;100.00;98339.84;106926;1285;23234;-54
2022/12/11 00:37:04;;;;;;;;;;;;;;;2.35;100.00;98336.54;106836;1301;22476;-54
2022/12/11 00:39:31;;;;;;;21.80;14.60;;;;;;;2.37;100.00;98330.95;106796;1282;22138;-54
2022/12/11 00:41:57;;;;;;;23.20;14.30;;;;;;;2.38;100.00;98323.77;106837;1293;22215;-54
2022/12/11 00:44:24;;;;;;;22.90;15.50;;;;;;;2.39;100.00;98324.00;106820;1302;22184;-54
2022/12/11 00:46:51;;;;;;;20.40;13.10;;;;;;;2.41;100.00;98320.66;106826;1286;22182;-54
2022/12/11 00:49:17;;;;;;;;;;;;;;;2.42;100.00;98309.35;106825;1302;22402;-54
2022/12/11 00:51:44;;;;;;;19.60;13.00;;;;;;;2.44;100.00;98302.98;106845;1302;22148;-54
2022/12/11 00:54:11;;;;;;;22.90;15.10;;;;;;;2.47;100.00;98314.70;106810;1301;22185;-55
2022/12/11 00:56:37;;;;;;;19.10;13.40;;;;;;;2.49;100.00;98316.73;106827;1296;22186;-54
2022/12/11 00:59:04;;;;;;;;;;;;;;;2.52;100.00;98327.19;106858;1301;22328;-54
2022/12/11 01:01:31;;;;;;;18.40;12.30;;;;;;;2.53;100.00;98330.64;106814;1301;22844;-54
2022/12/11 01:03:58;;;;;;;;;;;;;;;2.54;100.00;98331.54;106807;1287;22355;-54
2022/12/11 01:06:25;;;;;;;15.60;11.40;;;;;;;2.55;100.00;98332.27;106846;1295;23291;-54
2022/12/11 01:10:22;;;;;;;16.00;11.20;;;;;;;2.55;100.00;98333.18;106847;1301;22966;-54
2022/12/11 01:11:39;;;;;;;16.20;12.00;;;;;;;2.55;100.00;98338.55;106821;1302;22883;-54
2022/12/11 01:14:05;;;;;;;16.70;13.00;;;;;;;2.55;100.00;98336.40;106721;1296;22299;-54
2022/12/11 01:16:32;;;;;;;21.60;12.90;;;;;;;2.54;100.00;98329.92;104350;1286;22545;-53
2022/12/11 01:18:59;;;;;;;;;;;;;;;2.54;100.00;98331.38;102503;1278;25299;-54
2022/12/11 01:21:26;;;;;;;17.40;11.60;;;;;;;2.55;100.00;98332.57;102552;1284;22847;-53
2022/12/11 01:23:52;;;;;;;20.10;12.80;;;;;;;2.55;100.00;98324.79;102510;1294;22496;-53
2022/12/11 01:26:20;;;;;;;17.40;11.60;;;;;;;2.56;100.00;98325.23;102520;1302;22471;-53
2022/12/11 01:28:50;;;;;;;15.90;11.90;;;;;;;2.56;100.00;98324.06;102535;1309;24591;-53
2022/12/11 01:31:17;;;;;;;18.10;11.60;;;;;;;2.57;100.00;98318.77;102523;1280;22570;-53
2022/12/11 01:33:44;;;;;;;19.40;13.00;;;;;;;2.57;100.00;98315.27;106477;1303;22182;-54
2022/12/11 01:36:14;;;;;;;17.40;11.00;;;;;;;2.58;100.00;98315.44;106888;1296;22224;-54
2022/12/11 01:38:40;;;;;;;16.30;10.90;;;;;;;2.58;100.00;98306.83;106833;1296;22326;-54
2022/12/11 01:41:07;;;;;;;19.50;12.10;;;;;;;2.58;100.00;98302.33;106821;1293;22156;-54
2022/12/11 01:43:54;;;;;;;19.80;12.60;;;;;;;2.58;100.00;98293.99;106743;1290;22327;-54
2022/12/11 01:46:20;;;;;;;20.80;13.00;;;;;;;2.58;100.00;98293.02;104575;1290;22729;-54
2022/12/11 01:48:47;;;;;;;;;;;;;;;2.57;100.00;98285.09;102474;1286;25377;-53
2022/12/11 01:51:14;;;;;;;18.70;11.40;;;;;;;2.58;100.00;98278.88;102544;1294;24438;-53
2022/12/11 01:53:42;;;;;;;20.10;14.10;;;;;;;2.56;100.00;98272.10;102496;1280;22884;-54
2022/12/11 01:56:09;;;;;;;25.50;16.10;;;;;;;2.55;100.00;98276.42;106699;1302;22123;-54
2022/12/11 01:58:41;;;;;;;23.90;14.30;;;;;;;2.53;100.00;98281.14;106812;1302;22851;-54
2022/12/11 02:01:10;;;;;;;21.60;13.40;;;;;;;2.52;100.00;98286.95;106700;1287;22125;-54
2022/12/11 02:03:37;;;;;;;26.30;15.30;;;;;;;2.51;100.00;98282.42;106792;1301;22936;-54
2022/12/11 02:06:04;;;;;;;22.40;14.40;;;;;;;2.49;100.00;98270.45;106834;1295;22233;-54
2022/12/11 02:08:30;;;;;;;;;;;;;;;2.49;100.00;98266.89;106773;1295;22390;-54
2022/12/11 02:11:24;;;;;;;23.40;14.30;;;;;;;2.45;100.00;98258.86;106844;1287;23415;-55
2022/12/11 02:14:01;;;;;;;20.90;13.70;;;;;;;2.47;100.00;98260.52;106830;1289;22246;-54
2022/12/11 02:16:31;;;;;;;18.40;12.10;;;;;;;2.47;100.00;98258.13;106631;1301;22134;-54
2022/12/11 02:19:17;;;;;;;21.80;11.90;;;;;;;2.46;100.00;98252.55;106716;1288;22206;-54
2022/12/11 02:21:47;;;;;;;21.70;13.20;;;;;;;2.47;100.00;98239.88;106822;1283;24448;-54
2022/12/11 02:24:44;;;;;;;23.40;13.70;;;;;;;2.48;100.00;98231.71;106845;1302;23145;-54
2022/12/11 02:27:29;;;;;;;20.30;12.90;;;;;;;2.50;100.00;98224.23;106839;1286;22329;-55
2022/12/11 02:30:06;;;;;;;31.20;21.50;;;;;;;2.50;100.00;98211.91;106863;1302;22360;-54
2022/12/11 02:32:34;;;;;;;33.80;21.00;;;;;;;2.49;100.00;98206.68;106789;1286;23518;-54
2022/12/11 02:35:18;;;;;;;27.60;19.30;;;;;;;2.49;100.00;98205.77;106764;1302;22234;-54
2022/12/11 02:37:46;;;;;;;24.70;17.20;;;;;;;2.49;100.00;98191.83;106755;1302;22142;-54
2022/12/11 02:40:14;;;;;;;21.50;14.70;;;;;;;2.48;100.00;98184.28;106726;1295;23125;-54
2022/12/11 02:42:42;;;;;;;20.10;13.40;;;;;;;2.46;100.00;98178.45;106637;1304;22165;-54
2022/12/11 02:45:09;;;;;;;19.00;12.80;;;;;;;2.45;100.00;98172.64;106703;1304;23316;-55
2022/12/11 02:47:36;;;;;;;16.40;11.00;;;;;;;2.44;100.00;98166.70;106757;1301;22117;-55
2022/12/11 02:50:06;;;;;;;18.40;11.10;;;;;;;2.43;100.00;98169.61;106674;1302;22111;-55
2022/12/11 02:52:33;;;;;;;17.30;11.10;;;;;;;2.41;100.00;98158.55;106760;1301;22217;-54
2022/12/11 02:55:00;;;;;;;15.20;10.60;;;;;;;2.38;100.00;98146.21;106829;1302;22363;-55
2022/12/11 02:57:29;;;;;;;;;;;;;;;2.41;100.00;98148.27;106726;1301;23193;-55
2022/12/11 02:59:55;;;;;;;15.30;11.30;;;;;;;2.40;100.00;98150.71;106736;1298;22506;-55
2022/12/11 03:02:22;;;;;;;17.40;12.00;;;;;;;2.40;100.00;98149.48;106808;1301;22139;-55
2022/12/11 03:04:49;;;;;;;16.20;10.40;;;;;;;2.41;100.00;98154.50;106688;1282;22118;-55
2022/12/11 03:07:24;;;;;;;16.80;11.50;;;;;;;2.41;100.00;98145.85;106813;1287;22999;-54
2022/12/11 03:09:51;;;;;;;15.70;11.00;;;;;;;2.42;100.00;98138.93;106679;1289;22153;-55
2022/12/11 03:12:20;;;;;;;15.20;10.50;;;;;;;2.43;100.00;98132.34;106792;1296;22232;-54
2022/12/11 03:14:47;;;;;;;13.90;9.40;;;;;;;2.44;100.00;98133.32;106812;1301;22135;-55
2022/12/11 03:17:16;;;;;;;12.50;8.60;;;;;;;2.42;100.00;98124.41;106808;1295;22286;-55
2022/12/11 03:19:54;;;;;;;13.30;8.50;;;;;;;2.47;100.00;98122.44;106775;1296;22225;-55
2022/12/11 03:22:24;;;;;;;12.80;8.10;;;;;;;2.47;100.00;98124.29;106686;1296;22134;-54
2022/12/11 03:24:54;;;;;;;12.10;8.80;;;;;;;2.49;100.00;98123.67;106704;1301;22123;-55
2022/12/11 03:27:29;;;;;;;11.50;8.10;;;;;;;2.52;100.00;98127.02;106734;1302;23008;-55
2022/12/11 03:29:59;;;;;;;13.80;8.10;;;;;;;2.54;100.00;98121.63;106702;1301;22115;-55
2022/12/11 03:32:28;;;;;;;12.10;8.10;;;;;;;2.57;100.00;98128.61;106723;1302;22994;-54
2022/12/11 03:35:05;;;;;;;14.80;9.80;;;;;;;2.58;100.00;98136.54;106567;1297;22113;-55
2022/12/11 03:37:34;;;;;;;14.20;9.70;;;;;;;2.60;100.00;98148.40;106703;1302;22963;-54
2022/12/11 03:40:07;;;;;;;18.20;12.30;;;;;;;2.62;100.00;98154.77;106694;1303;22188;-55
2022/12/11 03:42:34;;;;;;;18.60;12.90;;;;;;;2.64;100.00;98149.11;106742;1289;22239;-55
2022/12/11 03:45:01;;;;;;;17.70;12.50;;;;;;;2.66;100.00;98153.30;106659;1300;22125;-55
2022/12/11 03:47:27;;;;;;;18.00;11.50;;;;;;;2.69;100.00;98156.80;102508;1280;22840;-54
2022/12/11 03:49:54;;;;;;;16.90;11.70;;;;;;;2.72;100.00;98147.39;102467;1284;22493;-54
2022/12/11 03:52:21;;;;;;;;;;;;;;;2.73;100.00;98147.79;102513;1303;24452;-54
2022/12/11 03:54:48;;;;;;;15.60;10.20;;;;;;;2.74;100.00;98148.08;102306;1303;325289;-54
2022/12/11 03:59:20;;;;;;;14.70;10.90;;;;;;;2.78;100.00;98144.41;99698;1338;546518;-53
2022/12/11 04:01:47;;;;;;;15.60;11.10;;;;;;;2.78;100.00;98143.46;101417;1297;22499;-56
2022/12/11 04:04:14;;;;;;;12.50;9.90;;;;;;;2.81;100.00;98150.35;101478;1291;25368;-54
2022/12/11 04:06:41;;;;;;;;;;;;;;;2.82;100.00;98148.17;101420;1298;25329;-54
2022/12/11 04:09:07;;;;;;;12.40;8.90;;;;;;;2.83;100.00;98139.89;101408;1322;22519;-54
2022/12/11 04:11:34;;;;;;;12.30;8.70;;;;;;;2.84;100.00;98135.55;101440;1322;24259;-54
2022/12/11 04:16:46;;;;;;;12.70;9.20;;;;;;;2.89;100.00;98123.96;101949;1301;22518;-54
2022/12/11 04:24:55;;;;;;;10.80;9.20;;;;;;;2.93;100.00;98107.41;106260;1312;22211;-55
2022/12/11 04:30:10;;;;;;;11.50;8.30;;;;;;;2.94;100.00;98103.23;106170;1312;22220;-55
2022/12/11 04:32:36;;;;;;;11.80;8.60;;;;;;;2.94;100.00;98115.28;106167;1311;22361;-55
2022/12/11 04:35:05;;;;;;;10.00;8.10;;;;;;;2.94;100.00;98123.69;106129;1297;22156;-55
2022/12/11 04:37:32;;;;;;;9.20;7.30;;;;;;;2.94;100.00;98122.98;106176;1310;22112;-55
2022/12/11 04:39:58;;;;;;;9.30;7.50;;;;;;;2.96;100.00;98120.42;106188;1312;22129;-55
2022/12/11 04:42:25;;;;;;;9.90;7.90;;;;;;;2.98;100.00;98107.88;106160;1303;22325;-55
2022/12/11 04:44:52;;;;;;;10.00;7.90;;;;;;;3.00;100.00;98105.39;106101;1312;22947;-55
2022/12/11 04:47:18;;;;;;;12.40;9.50;;;;;;;3.02;100.00;98106.08;106136;1312;22166;-55
2022/12/11 04:49:45;;;;;;;13.50;11.30;;;;;;;3.06;100.00;98101.80;106041;1315;22131;-55
2022/12/11 04:52:12;;;;;;;15.70;13.50;;;;;;;3.07;100.00;98094.84;106059;1311;22147;-55
2022/12/11 04:54:39;;;;;;;16.20;11.70;;;;;;;3.09;100.00;98089.48;106112;1312;22135;-55
2022/12/11 04:57:05;;;;;;;13.80;11.10;;;;;;;3.11;100.00;98083.45;102670;1305;22562;-55
2022/12/11 04:59:32;;;;;;;15.60;12.10;;;;;;;3.13;100.00;98081.64;101514;1301;25240;-54
2022/12/11 05:01:59;;;;;;;;;;;;;;;3.14;100.00;98079.66;101456;1297;22847;-54
2022/12/11 05:04:30;;;;;;;14.00;11.30;;;;;;;3.13;100.00;98074.44;101604;1290;25391;-54
2022/12/11 05:06:57;;;;;;;15.70;12.60;;;;;;;3.13;100.00;98072.19;106028;1313;22390;-55
2022/12/11 05:09:25;;;;;;;13.60;10.30;;;;;;;3.13;100.00;98067.06;105930;1315;23257;-55
2022/12/11 05:11:52;;;;;;;14.80;12.20;;;;;;;3.13;100.00;98068.30;106102;1312;22263;-55
2022/12/11 05:14:18;;;;;;;16.40;12.20;;;;;;;3.13;100.00;98064.16;106067;1313;22368;-55
2022/12/11 05:16:45;;;;;;;12.70;10.30;;;;;;;3.14;100.00;98064.66;105958;1312;22137;-55
2022/12/11 05:19:12;;;;;;;16.90;11.30;;;;;;;3.16;100.00;98061.90;105964;1297;22811;-55
2022/12/11 05:21:38;;;;;;;10.00;8.30;;;;;;;3.13;100.00;98046.10;106091;1297;22171;-55
2022/12/11 05:24:06;;;;;;;10.90;8.80;;;;;;;3.19;100.00;98051.15;105998;1310;22927;-55
2022/12/11 05:26:32;;;;;;;11.70;8.20;;;;;;;3.21;100.00;98045.86;105985;1304;22142;-55
2022/12/11 05:28:59;;;;;;;9.50;7.50;;;;;;;3.23;100.00;98046.42;106008;1312;22135;-55
2022/12/11 05:31:26;;;;;;;12.00;9.40;;;;;;;3.25;100.00;98045.65;106014;1312;22831;-55
2022/12/11 05:33:53;;;;;;;;;;;;;;;3.26;100.00;98035.67;106604;1298;22353;-55
2022/12/11 05:36:21;;;;;;;15.30;11.60;;;;;;;3.29;100.00;98026.92;106525;1296;22279;-55
2022/12/11 05:38:48;;;;;;;18.70;12.50;;;;;;;3.29;100.00;98029.23;106623;1281;22213;-55
2022/12/11 05:41:17;;;;;;;12.70;9.60;;;;;;;3.28;100.00;98028.91;106653;1287;22175;-55
2022/12/11 05:43:43;;;;;;;12.20;10.10;;;;;;;3.29;100.00;98030.91;106801;1302;22348;-55
2022/12/11 05:46:16;;;;;;;13.40;11.20;;;;;;;3.31;100.00;98020.81;106746;1305;22240;-55
2022/12/11 05:48:43;;;;;;;11.40;9.50;;;;;;;3.32;100.00;98016.84;106624;1289;22120;-55
2022/12/11 05:51:11;;;;;;;12.60;10.20;;;;;;;3.33;100.00;98008.92;106962;1300;22195;-55
2022/12/11 05:53:38;;;;;;;12.40;10.00;;;;;;;3.34;100.00;98007.87;106852;1295;22878;-55
2022/12/11 05:56:05;;;;;;;;;;;;;;;3.35;100.00;98005.02;106880;1302;22403;-55
2022/12/11 05:58:32;;;;;;;37.00;20.10;;;;;;;3.37;100.00;98010.81;106919;1300;22825;-55
2022/12/11 06:00:59;;;;;;;13.80;10.50;;;;;;;3.39;100.00;98005.30;106897;1286;22119;-55
2022/12/11 06:03:26;;;;;;;12.90;10.20;;;;;;;3.41;100.00;98004.00;106713;1302;22258;-55
2022/12/11 06:05:53;;;;;;;;;;;;;;;3.43;100.00;97995.14;106190;1302;138430;-55
2022/12/11 06:08:19;;;;;;;26.90;18.40;;;;;;;3.45;100.00;97996.25;106397;1308;22123;-55
2022/12/11 06:10:47;;;;;;;27.30;18.80;;;;;;;3.46;100.00;97992.65;106334;1305;139536;-55
2022/12/11 06:13:14;;;;;;;45.10;25.20;;;;;;;3.47;100.00;97992.33;106404;1307;22140;-55
2022/12/11 06:15:41;;;;;;;29.30;16.10;;;;;;;3.52;100.00;97992.34;106412;1306;22811;-55
2022/12/11 06:18:07;;;;;;;;;;;;;;;3.60;100.00;97991.64;106345;1298;138273;-56
2022/12/11 06:20:34;;;;;;;16.00;12.20;;;;;;;3.67;100.00;97991.66;106421;1306;22198;-56
2022/12/11 06:23:01;;;;;;;;;;;;;;;3.72;100.00;97991.09;106306;1300;138199;-56
2022/12/11 06:25:28;;;;;;;54.60;26.80;;;;;;;3.74;100.00;97984.60;106372;1306;22166;-55
2022/12/11 06:27:54;;;;;;;;;;;;;;;3.77;100.00;97982.09;106303;1308;140696;-55
2022/12/11 06:30:21;;;;;;;60.90;27.80;;;;;;;3.80;100.00;97979.11;106403;1308;22115;-56
2022/12/11 06:33:03;;;;;;;80.70;29.20;;;;;;;3.83;100.00;97973.11;106413;1308;22132;-55
2022/12/11 06:35:30;;;;;;;41.50;20.60;;;;;;;3.89;100.00;97969.67;106246;1292;138484;-55
2022/12/11 06:37:57;;;;;;;111.40;41.70;;;;;;;3.94;100.00;97966.87;106396;1307;22182;-56
2022/12/11 06:40:24;;;;;;;54.00;22.20;;;;;;;4.00;100.00;97955.57;106349;1306;139618;-55
2022/12/11 06:42:51;;;;;;;86.80;33.30;;;;;;;4.05;100.00;97946.48;106425;1307;22691;-55
2022/12/11 06:45:17;;;;;;;22.80;18.70;;;;;;;4.09;100.00;97937.23;106165;1299;22216;-55
2022/12/11 06:47:44;;;;;;;31.80;18.90;;;;;;;4.13;100.00;97931.06;106304;1307;139333;-55
2022/12/11 06:50:11;;;;;;;75.90;39.10;;;;;;;4.16;100.00;97925.82;106384;1290;22108;-55
2022/12/11 06:52:38;;;;;;;32.50;15.90;;;;;;;4.21;100.00;97926.00;106285;1308;138681;-55
2022/12/11 06:55:05;;;;;;;25.70;14.50;;;;;;;4.25;100.00;97926.10;106402;1305;23096;-57
2022/12/11 06:57:33;;;;;;;34.10;16.00;;;;;;;4.28;100.00;97929.58;106348;1308;22221;-56
2022/12/11 07:00:00;;;;;;;46.90;20.70;;;;;;;4.31;100.00;97922.71;106281;1307;140817;-59
2022/12/11 07:02:27;;;;;;;;;;;;;;;4.31;100.00;97914.64;106394;1292;22408;-56
2022/12/11 07:04:54;;;;;;;17.30;11.80;;;;;;;4.33;100.00;97908.55;106364;1305;125285;-56
2022/12/11 07:07:21;;;;;;;11.80;8.40;;;;;;;4.33;100.00;97907.83;106386;1293;22124;-56
2022/12/11 07:32:40;;;;;;;18.70;15.10;;;;;;;4.41;100.00;97876.14;106396;1306;22167;-56
2022/12/11 07:35:07;;;;;;;37.90;20.50;;;;;;;4.43;100.00;97875.67;106315;1306;138183;-56
2022/12/11 07:37:35;;;;;;;13.00;10.80;;;;;;;4.46;100.00;97868.35;106400;1307;23288;-56
2022/12/11 07:40:02;;;;;;;18.20;11.80;;;;;;;4.51;100.00;97862.88;106330;1307;139309;-56
2022/12/11 07:42:29;;;;;;;28.40;17.60;;;;;;;4.56;100.00;97864.17;106453;1306;22113;-56
2022/12/11 07:44:55;;;;;;;;;;;;;;;4.59;100.00;97864.30;106446;1308;23522;-57
2022/12/11 07:47:22;;;;;;;48.00;24.80;;;;;;;4.61;100.00;97864.35;106270;1307;124545;-57
2022/12/11 07:49:49;;;;;;;;;;;;;;;4.62;100.00;97857.19;106244;1307;22374;-55
2022/12/11 07:52:16;;;;;;;21.70;15.90;;;;;;;4.64;100.00;97858.16;106368;1292;124416;-56
2022/12/11 07:54:42;;;;;;;15.30;12.30;;;;;;;4.65;100.00;97851.91;106396;1300;22229;-55
2022/12/11 07:57:09;;;;;;;17.30;9.90;;;;;;;4.64;100.00;97841.07;106393;1298;22156;-56
2022/12/11 07:59:40;;;;;;;11.60;10.00;;;;;;;4.65;100.00;97833.30;106344;1307;138688;-56
2022/12/11 08:02:09;;;;;;;13.50;9.70;;;;;;;4.66;100.00;97835.08;106434;1307;22402;-56
2022/12/11 08:04:36;;;;;;;10.80;9.10;;;;;;;4.67;100.00;97837.14;106176;1306;137914;-56
2022/12/11 08:07:03;;;;;;;31.90;19.20;;;;;;;4.68;100.00;97835.27;106371;1308;22167;-56
2022/12/11 08:09:30;;;;;;;14.00;10.80;;;;;;;4.69;100.00;97828.75;106357;1298;22214;-56
2022/12/11 08:11:56;;;;;;;20.40;15.00;;;;;;;4.72;100.00;97820.94;106326;1306;138155;-56
2022/12/11 08:14:23;;;;;;;28.30;21.90;;;;;;;4.74;100.00;97818.80;106365;1308;22082;-56
2022/12/11 08:16:50;;;;;;;13.80;12.10;;;;;;;4.74;100.00;97813.30;106265;1307;140505;-57
2022/12/11 08:19:17;;;;;;;;;;;;;;;4.77;100.00;97809.89;106489;1307;23260;-56
2022/12/11 08:21:43;;;;;;;114.60;45.00;;;;;;;4.79;100.00;97804.94;106395;1307;22969;-56
2022/12/11 08:24:10;;;;;;;;;;;;;;;4.82;100.00;97805.49;106313;1293;140099;-56
2022/12/11 08:26:37;;;;;;;59.30;25.90;;;;;;;4.82;100.00;97797.52;106436;1307;22139;-57
2022/12/11 08:29:04;;;;;;;53.60;27.20;;;;;;;4.82;100.00;97794.88;106263;1307;138278;-56
2022/12/11 08:31:32;;;;;;;58.10;25.00;;;;;;;4.83;100.00;97789.15;106434;1292;22130;-56
2022/12/11 08:33:59;;;;;;;44.00;20.40;;;;;;;4.86;100.00;97783.67;106296;1306;139558;-57
2022/12/11 08:36:26;;;;;;;33.20;20.70;;;;;;;4.89;100.00;97779.21;103929;1310;24447;-56
2022/12/11 08:38:54;;;;;;;22.30;17.20;;;;;;;4.92;100.00;97770.13;101968;1293;22979;-56
2022/12/11 08:41:27;;;;;;;56.80;26.00;;;;;;;4.93;100.00;97755.30;101747;1315;138958;-56
2022/12/11 08:43:54;;;;;;;35.40;21.90;;;;;;;4.97;100.00;97755.42;106469;1306;22146;-58
2022/12/11 08:46:22;;;;;;;24.20;14.30;;;;;;;4.99;100.00;97745.45;106270;1300;138643;-56
2022/12/11 08:48:49;;;;;;;33.10;18.30;;;;;;;5.03;100.00;97740.07;106370;1307;22151;-55
2022/12/11 08:51:19;;;;;;;33.70;19.70;;;;;;;5.03;100.00;97741.47;106363;1305;22206;-55
2022/12/11 08:53:46;;;;;;;32.40;18.50;;;;;;;5.03;100.00;97733.81;106210;1306;138359;-55
2022/12/11 08:56:15;;;;;;;54.60;25.80;;;;;;;5.05;100.00;97726.08;106424;1306;22119;-55
2022/12/11 08:58:42;;;;;;;38.60;25.00;;;;;;;5.08;100.00;97719.02;106307;1290;139604;-55
2022/12/11 09:01:11;;;;;;;27.80;16.40;;;;;;;5.09;100.00;97712.59;106433;1308;22134;-54
2022/12/11 09:03:38;;;;;;;76.40;28.40;;;;;;;5.11;100.00;97708.92;106380;1292;22214;-55
2022/12/11 09:06:06;;;;;;;27.10;15.50;;;;;;;5.14;100.00;97705.05;106289;1308;139112;-55
2022/12/11 09:08:33;;;;;;;35.40;18.60;;;;;;;5.19;100.00;97704.63;106414;1286;22261;-55
2022/12/11 09:11:05;;;;;;;31.80;15.70;;;;;;;5.23;100.00;97703.82;106314;1292;141089;-55
2022/12/11 09:13:32;;;;;;;91.00;35.00;;;;;;;5.26;100.00;97697.77;106452;1284;22097;-55
2022/12/11 09:15:59;;;;;;;52.40;21.50;;;;;;;5.28;100.00;97689.09;106367;1290;139914;-56
2022/12/11 09:18:26;;;;;;;22.20;11.20;;;;;;;5.31;100.00;97685.10;106379;1292;22125;-55
2022/12/11 09:21:04;;;;;;;19.90;13.70;;;;;;;5.35;100.00;97687.63;106426;1301;22951;-55
2022/12/11 09:23:31;;;;;;;14.90;10.40;;;;;;;5.38;100.00;97677.85;106285;1299;138318;-55
2022/12/11 09:25:58;;;;;;;73.50;26.60;;;;;;;5.38;100.00;97667.86;106431;1304;22187;-55
2022/12/11 09:28:25;;;;;;;55.50;21.40;;;;;;;5.39;100.00;97657.12;106255;1308;139406;-55
2022/12/11 09:30:52;;;;;;;38.20;17.90;;;;;;;5.44;100.00;97651.13;106412;1306;22162;-55
2022/12/11 09:33:18;;;;;;;73.80;23.30;;;;;;;5.49;100.00;97650.36;106451;1291;22130;-55
2022/12/11 09:35:45;;;;;;;47.70;15.00;;;;;;;5.51;100.00;97644.52;106314;1289;138418;-55
2022/12/11 09:38:12;;;;;;;46.90;19.70;;;;;;;5.53;100.00;97639.71;106383;1306;22101;-55
2022/12/11 09:40:40;;;;;;;30.60;19.50;;;;;;;5.55;100.00;97628.65;106358;1306;139019;-55
2022/12/11 09:43:33;;;;;;;18.00;14.70;;;;;;;5.58;100.00;97624.33;106471;1298;22619;-55
2022/12/11 09:46:00;;;;;;;118.10;40.80;;;;;;;5.60;100.00;97618.02;105534;1316;140482;-55
2022/12/11 09:48:27;;;;;;;;;;;;;;;5.61;100.00;97614.81;105828;1314;22400;-55
2022/12/11 09:50:54;;;;;;;154.20;52.60;;;;;;;5.63;100.00;97611.02;105836;1305;23085;-55
2022/12/11 09:53:24;;;;;;;;;;;;;;;5.64;100.00;97607.28;105773;1313;138906;-55
2022/12/11 09:55:59;;;;;;;75.60;29.70;;;;;;;5.64;100.00;97604.09;105959;1314;22181;-55
2022/12/11 09:59:04;;;;;;;32.40;14.70;;;;;;;5.64;100.00;97598.73;105687;1306;138615;-55
2022/12/11 10:02:02;;;;;;;22.00;13.80;;;;;;;5.64;100.00;97581.63;105853;1311;22656;-54
2022/12/11 10:04:46;;;;;;;45.30;30.40;;;;;;;5.70;100.00;97574.96;105821;1311;139732;-55
2022/12/11 10:07:19;;;;;;;39.60;26.80;;;;;;;5.74;100.00;97565.23;101950;1306;23102;-55
2022/12/11 10:10:38;;;;;;;120.20;47.50;;;;;;;5.77;100.00;97564.19;105853;1311;22196;-56
2022/12/11 10:13:23;;;;;;;101.60;42.30;;;;;;;5.81;100.00;97557.36;105120;1302;22728;-56
2022/12/11 10:15:53;;;;;;;25.30;13.20;;;;;;;5.84;100.00;97545.90;105387;1320;22191;-56
2022/12/11 10:18:21;;;;;;;47.40;21.90;;;;;;;5.87;100.00;97543.73;105138;1320;140312;-58
2022/12/11 10:20:49;;;;;;;36.60;18.60;;;;;;;5.89;100.00;97537.44;105399;1317;22918;-57
2022/12/11 10:23:21;;;;;;;66.70;30.40;;;;;;;5.93;100.00;97532.77;105555;1296;138827;-57
2022/12/11 10:25:57;;;;;;;35.20;26.10;;;;;;;5.96;100.00;97524.97;105811;1314;22160;-57
2022/12/11 10:28:25;;;;;;;83.50;34.30;;;;;;;5.99;100.00;97519.55;105711;1289;138799;-58
2022/12/11 10:31:30;;;;;;;84.90;35.90;;;;;;;6.02;100.00;97513.55;105849;1308;22368;-57
2022/12/11 10:34:01;;;;;;;59.50;24.00;;;;;;;6.10;100.00;97497.54;105842;1302;139510;-58
2022/12/11 10:36:33;;;;;;;25.10;13.40;;;;;;;6.11;100.00;97487.38;105835;1311;22201;-56
2022/12/11 10:39:00;;;;;;;32.30;14.90;;;;;;;6.20;100.00;97481.70;105962;1289;22180;-56
2022/12/11 10:41:36;;;;;;;29.50;15.60;;;;;;;6.24;100.00;97475.39;105743;1311;138170;-56
2022/12/11 10:44:19;;;;;;;38.40;22.00;;;;;;;6.29;100.00;97470.89;105808;1315;22232;-56
2022/12/11 10:46:47;;;;;;;34.00;17.80;;;;;;;6.35;100.00;97463.64;105782;1308;138728;-56
2022/12/11 10:49:25;;;;;;;15.00;10.60;;;;;;;6.40;100.00;97458.63;105946;1298;22173;-57
2022/12/11 10:51:53;;;;;;;21.80;16.80;;;;;;;6.47;100.00;97454.86;106536;1299;22146;-56
2022/12/11 10:54:23;;;;;;;39.90;17.20;;;;;;;6.52;100.00;97449.02;106251;1308;139349;-57
2022/12/11 10:56:50;;;;;;;53.10;22.50;;;;;;;6.58;100.00;97448.92;106389;1307;22231;-58
2022/12/11 10:59:28;;;;;;;25.20;13.40;;;;;;;6.64;100.00;97443.30;106131;1307;139068;-59
2022/12/11 11:01:56;;;;;;;30.40;16.30;;;;;;;6.72;100.00;97442.42;106350;1293;22191;-66
2022/12/11 11:04:29;;;;;;;31.30;16.60;;;;;;;6.80;100.00;97437.96;106337;1284;139306;-60
2022/12/11 11:07:10;;;;;;;43.40;20.30;;;;;;;6.85;100.00;97434.08;103035;1307;22485;-57
2022/12/11 11:09:38;;;;;;;24.00;18.50;;;;;;;6.90;100.00;97427.81;106462;1290;22323;-57
2022/12/11 11:12:20;;;;;;;13.50;10.30;;;;;;;6.93;100.00;97427.98;106327;1307;139493;-57
2022/12/11 11:15:00;;;;;;;28.80;12.40;;;;;;;6.98;100.00;97415.21;106413;1301;22236;-56
2022/12/11 11:17:27;;;;;;;44.00;17.30;;;;;;;7.03;100.00;97419.30;106292;1300;139003;-56
2022/12/11 11:20:06;;;;;;;25.20;14.30;;;;;;;7.08;100.00;97415.65;106292;1308;22259;-52
2022/12/11 11:22:42;;;;;;;130.90;50.40;;;;;;;7.14;100.00;97411.00;106343;1306;140178;-52
2022/12/11 11:25:20;;;;;;;36.40;14.50;;;;;;;7.19;100.00;97403.85;106415;1304;22144;-52
2022/12/11 11:28:03;;;;;;;26.10;12.50;;;;;;;7.23;100.00;97400.98;106258;1307;22956;-52
2022/12/11 11:30:34;;;;;;;47.70;19.30;;;;;;;7.25;100.00;97395.96;106335;1308;22147;-52
2022/12/11 11:33:11;;;;;;;16.20;10.70;;;;;;;7.31;100.00;97387.90;106403;1308;22174;-52
2022/12/11 11:35:38;;;;;;;11.30;7.70;;;;;;;7.38;100.00;97379.56;106349;1305;138975;-52
2022/12/11 11:38:19;;;;;;;36.90;17.40;;;;;;;7.46;100.00;97380.89;106461;1305;22424;-55
2022/12/11 11:40:51;;;;;;;21.00;12.50;;;;;;;7.53;100.00;97378.08;106326;1287;138965;-55
2022/12/11 11:43:30;;;;;;;28.80;16.10;;;;;;;7.59;100.00;97369.77;106471;1290;22128;-55
2022/12/11 11:46:00;;;;;;;28.70;14.50;;;;;;;7.65;100.00;97360.31;106431;1283;22224;-55
2022/12/11 11:48:32;;;;;;;43.00;27.80;;;;;;;7.71;100.00;97352.48;106407;1293;23293;-52
2022/12/11 11:51:05;;;;;;;101.30;59.10;;;;;;;7.78;100.00;97354.87;106300;1286;22280;-51
2022/12/11 11:53:36;;;;;;;10.50;8.10;;;;;;;7.85;100.00;97349.45;106188;1308;138460;-53
2022/12/11 11:56:22;;;;;;;12.30;7.30;;;;;;;7.90;100.00;97344.72;106260;1293;22350;-53
2022/12/11 11:59:20;;;;;;;30.20;22.70;;;;;;;7.97;100.00;97341.73;106363;1305;139648;-52
2022/12/11 12:01:47;;;;;;;11.90;10.20;;;;;;;8.02;100.00;97338.69;106383;1296;22124;-53
2022/12/11 12:04:14;;;;;;;;;;;;;;;8.02;100.00;97329.67;106420;1284;140245;-53